Time;durP1;ratioP1;P1;durP2;ratioP2;P2;SDS_P1;SDS_P2;PMS_P1;PMS_P2;Temp;Humidity;BMP_temperature;BMP_pressure;BME280_temperature;BME280_humidity;BME280_pressure;Samples;Min_cycle;Max_cycle;Signal;HPM_P1;HPM_P2
2021/11/27 00:00:51;;;;;;;11.98;7.05;;;2.10;77.80;;;0.93;65.35;92736.41;4939798;28;20302;-79
2021/11/27 00:03:20;;;;;;;13.60;7.15;;;2.10;77.80;;;0.91;65.27;92731.41;4940428;28;20209;-78
2021/11/27 00:05:50;;;;;;;12.02;7.10;;;2.10;77.80;;;0.89;65.42;92735.97;4924879;28;20209;-78
2021/11/27 00:08:19;;;;;;;12.50;6.80;;;2.10;77.80;;;0.89;65.51;92732.59;4937175;28;20234;-78
2021/11/27 00:10:53;;;;;;;14.73;7.93;;;2.10;77.90;;;0.88;65.48;92723.25;4952240;28;20297;-78
2021/11/27 00:13:22;;;;;;;11.18;6.78;;;2.00;77.90;;;0.85;65.45;92724.41;4925147;28;20206;-78
2021/11/27 00:15:50;;;;;;;12.93;7.15;;;2.00;77.90;;;0.84;65.29;92725.41;4924951;29;20203;-78
2021/11/27 00:18:21;;;;;;;11.50;6.60;;;2.00;77.90;;;0.87;65.59;92735.38;4958052;28;20207;-78
2021/11/27 00:21:00;;;;;;;13.55;7.72;;;2.00;77.90;;;0.83;65.67;92734.16;4944473;28;20198;-78
2021/11/27 00:23:30;;;;;;;19.25;10.23;;;2.00;77.90;;;0.87;65.47;92742.31;4943873;28;20281;-78
2021/11/27 00:25:58;;;;;;;49.08;29.05;;;2.00;78.00;;;0.88;65.46;92734.38;4944001;28;20297;-79
2021/11/27 00:28:26;;;;;;;21.58;13.95;;;2.00;78.00;;;0.89;65.17;92746.31;4943560;28;20230;-78
2021/11/27 00:30:58;;;;;;;17.17;11.00;;;2.00;78.00;;;0.89;66.02;92742.91;4943145;28;20653;-78
2021/11/27 00:33:26;;;;;;;16.08;10.70;;;1.90;78.00;;;0.90;65.52;92742.72;4943830;28;20648;-78
2021/11/27 00:35:54;;;;;;;14.20;8.38;;;2.00;78.10;;;0.91;65.35;92741.75;4944256;28;20262;-79
2021/11/27 00:38:21;;;;;;;14.10;8.95;;;2.00;78.10;;;0.90;65.42;92755.63;4940088;28;20206;-78
2021/11/27 00:40:50;;;;;;;14.70;8.02;;;2.00;78.10;;;0.92;65.36;92763.19;4940131;29;20222;-78
2021/11/27 00:43:18;;;;;;;13.05;8.02;;;2.00;78.10;;;0.93;65.68;92754.47;4940501;28;20274;-78
2021/11/27 00:45:48;;;;;;;13.95;8.23;;;2.00;79.00;;;0.96;65.32;92754.09;4940148;29;20195;-79
2021/11/27 00:48:17;;;;;;;11.75;7.82;;;2.00;78.10;;;0.99;65.88;92745.16;4943208;28;20226;-78
2021/11/27 00:50:53;;;;;;;13.38;8.27;;;2.00;78.20;;;0.98;65.87;92751.31;4943938;28;20210;-78
2021/11/27 00:53:21;;;;;;;14.63;8.68;;;2.00;78.20;;;0.98;65.73;92746.97;4943508;28;20256;-78
2021/11/27 00:55:49;;;;;;;13.00;8.18;;;2.00;78.20;;;1.03;65.59;92754.16;4943059;28;20286;-78
2021/11/27 00:58:17;;;;;;;12.45;7.40;;;2.00;78.20;;;1.04;65.59;92750.56;4925019;28;20207;-78
2021/11/27 01:00:50;;;;;;;15.35;7.82;;;2.10;78.30;;;1.00;65.56;92750.16;4942761;28;20622;-77
2021/11/27 01:03:22;;;;;;;13.07;7.40;;;2.10;78.30;;;1.05;65.39;92757.31;4943232;28;20198;-78
2021/11/27 01:06:00;;;;;;;12.27;7.22;;;2.10;78.20;;;1.06;65.15;92746.03;4944764;28;20642;-78
2021/11/27 01:08:28;;;;;;;10.85;6.50;;;2.10;78.20;;;1.08;65.31;92744.84;4939239;28;20250;-78
2021/11/27 01:11:29;;;;;;;14.25;7.55;;;2.10;78.20;;;1.07;65.44;92737.28;4940085;29;20211;-79
2021/11/27 01:14:06;;;;;;;11.35;6.93;;;2.10;78.30;;;1.09;65.40;92735.34;4938049;29;20226;-79
2021/11/27 01:16:38;;;;;;;11.75;7.15;;;2.10;78.20;;;1.09;65.62;92740.50;4939826;29;20221;-79
2021/11/27 01:19:07;;;;;;;11.98;7.10;;;2.10;78.30;;;1.10;65.84;92739.53;4924097;29;20688;-78
2021/11/27 01:21:39;;;;;;;11.27;6.97;;;2.20;78.30;;;1.11;65.50;92736.75;4939980;29;20223;-78
2021/11/27 01:24:13;;;;;;;13.00;6.88;;;2.20;78.30;;;1.14;65.32;92739.94;4939943;29;20211;-79
2021/11/27 01:26:42;;;;;;;13.13;7.78;;;2.20;78.30;;;1.15;65.56;92739.75;4943817;28;20310;-78
2021/11/27 01:29:30;;;;;;;14.63;7.65;;;2.20;78.30;;;1.16;65.55;92741.34;4946709;28;20226;-77
2021/11/27 01:31:58;;;;;;;11.63;7.05;;;2.20;78.30;;;1.19;65.41;92743.53;4942553;28;20206;-79
2021/11/27 01:34:26;;;;;;;14.32;7.03;;;2.20;78.30;;;1.20;65.67;92739.97;4957052;28;20226;-78
2021/11/27 01:36:53;;;;;;;11.05;6.90;;;2.20;78.30;;;1.22;65.32;92729.44;4939008;28;20896;-78
2021/11/27 01:39:21;;;;;;;11.70;7.00;;;2.20;78.30;;;1.24;65.69;92730.84;4940445;28;20221;-79
2021/11/27 01:41:48;;;;;;;12.05;7.03;;;2.20;78.30;;;1.29;65.46;92740.63;4940509;28;20202;-77
2021/11/27 01:44:17;;;;;;;14.23;7.03;;;2.30;78.40;;;1.32;65.57;92737.69;4939598;28;20305;-77
2021/11/27 01:46:45;;;;;;;14.43;7.53;;;2.30;78.40;;;1.33;65.83;92723.78;4939306;28;20601;-78
2021/11/27 01:49:13;;;;;;;11.75;7.82;;;2.30;78.50;;;1.34;65.80;92721.97;4937602;28;20233;-78
2021/11/27 01:51:41;;;;;;;13.55;7.65;;;2.30;79.30;;;1.41;65.68;92726.19;4938810;28;20190;-78
2021/11/27 01:54:11;;;;;;;11.43;7.20;;;2.30;78.50;;;1.40;65.62;92716.88;4938241;28;20649;-78
2021/11/27 01:56:50;;;;;;;12.48;6.82;;;2.40;78.50;;;1.47;65.44;92727.22;4939641;28;20210;-79
2021/11/27 01:59:25;;;;;;;11.68;6.72;;;2.40;78.60;;;1.49;65.75;92719.28;4939524;28;20221;-78
2021/11/27 02:01:55;;;;;;;10.80;6.72;;;2.40;78.50;;;1.53;65.47;92707.59;4938727;28;20724;-78
2021/11/27 02:04:27;;;;;;;10.00;6.40;;;2.50;78.50;;;1.54;65.15;92704.81;4945010;28;20210;-79
2021/11/27 02:06:55;;;;;;;9.77;6.05;;;2.50;78.50;;;1.57;65.29;92698.47;4940204;28;20242;-78
2021/11/27 02:09:28;;;;;;;11.20;6.50;;;2.50;78.40;;;1.57;65.47;92704.41;4943636;28;20304;-79
2021/11/27 02:12:02;;;;;;;8.63;5.97;;;2.60;78.40;;;1.54;65.18;92697.06;4940374;28;20190;-79
2021/11/27 02:14:32;;;;;;;10.60;6.22;;;2.50;78.20;;;1.52;64.84;92699.03;4940504;28;20221;-78
2021/11/27 02:17:19;;;;;;;10.98;6.32;;;2.50;78.00;;;1.46;65.09;92704.97;4942207;28;20333;-78
2021/11/27 02:19:51;;;;;;;9.35;6.05;;;2.50;77.90;;;1.40;65.06;92685.88;4942540;28;20261;-78
2021/11/27 02:22:19;;;;;;;14.10;6.22;;;2.50;77.90;;;1.39;65.08;92692.03;4945736;28;20289;-78
2021/11/27 02:24:49;;;;;;;10.07;6.15;;;2.50;77.90;;;1.34;64.91;92678.06;4938152;29;20227;-77
2021/11/27 02:27:17;;;;;;;11.25;7.28;;;2.40;77.90;;;1.31;65.05;92674.09;4954228;29;20258;-79
2021/11/27 02:29:46;;;;;;;12.60;6.88;;;2.40;77.90;;;1.29;65.40;92678.66;4972679;28;20223;-79
2021/11/27 02:32:15;;;;;;;11.13;6.38;;;2.40;78.00;;;1.28;65.38;92669.28;4957425;28;20234;-79
2021/11/27 02:34:42;;;;;;;9.75;6.25;;;2.40;78.10;;;1.28;65.43;92677.84;4941354;28;20273;-79
2021/11/27 02:37:11;;;;;;;9.27;5.88;;;2.40;78.10;;;1.29;65.21;92668.31;4940589;28;20206;-78
2021/11/27 02:39:44;;;;;;;9.73;5.88;;;2.40;78.30;;;1.32;65.42;92672.28;4941581;28;20241;-79
2021/11/27 02:42:15;;;;;;;12.52;6.38;;;2.30;78.20;;;1.31;65.68;92671.50;4926681;28;20214;-79
2021/11/27 02:44:43;;;;;;;9.75;5.90;;;2.30;78.20;;;1.31;65.13;92666.34;4941104;28;20254;-78
2021/11/27 02:47:10;;;;;;;9.15;5.63;;;2.30;78.10;;;1.35;65.39;92671.94;4940974;28;20202;-78
2021/11/27 02:49:38;;;;;;;9.88;6.53;;;2.30;78.20;;;1.34;65.41;92673.69;4937664;29;20590;-78
2021/11/27 02:52:06;;;;;;;10.52;6.78;;;2.30;78.20;;;1.37;65.76;92670.75;4944768;28;20202;-78
2021/11/27 02:54:34;;;;;;;10.23;5.93;;;2.30;78.30;;;1.38;65.75;92669.75;4956874;28;20226;-78
2021/11/27 02:57:02;;;;;;;10.48;6.55;;;2.40;78.40;;;1.41;65.38;92666.78;4940743;28;20199;-79
2021/11/27 02:59:30;;;;;;;9.95;5.95;;;2.40;78.40;;;1.41;65.59;92661.63;4957244;28;20649;-78
2021/11/27 03:02:00;;;;;;;9.23;5.43;;;2.40;78.40;;;1.46;65.35;92665.44;4956425;28;20202;-78
2021/11/27 03:04:36;;;;;;;10.77;6.20;;;2.40;78.40;;;1.49;65.48;92665.03;4938160;29;20416;-79
2021/11/27 03:07:05;;;;;;;12.48;6.15;;;2.40;78.40;;;1.50;65.58;92667.44;4953480;28;20234;-79
2021/11/27 03:09:34;;;;;;;9.32;6.05;;;2.40;78.40;;;1.53;65.46;92669.63;4940724;28;20234;-79
2021/11/27 03:12:02;;;;;;;11.60;6.20;;;2.50;78.40;;;1.55;65.49;92670.25;4956255;28;20230;-79
2021/11/27 03:14:30;;;;;;;9.13;5.80;;;2.50;78.50;;;1.58;65.12;92667.25;4940143;28;20340;-79
2021/11/27 03:17:00;;;;;;;9.85;6.15;;;2.50;78.40;;;1.61;65.29;92663.50;4942440;28;20199;-78
2021/11/27 03:19:33;;;;;;;10.15;6.13;;;2.50;78.40;;;1.62;65.50;92661.72;4940620;28;20250;-79
2021/11/27 03:22:00;;;;;;;9.95;6.05;;;2.60;78.40;;;1.65;65.30;92663.91;4957186;28;20187;-79
2021/11/27 03:24:37;;;;;;;11.02;6.03;;;2.60;78.40;;;1.67;65.22;92651.59;4941607;28;20788;-79
2021/11/27 03:27:06;;;;;;;12.40;6.70;;;2.60;78.40;;;1.65;65.65;92644.03;4939828;28;20399;-79
2021/11/27 03:29:34;;;;;;;11.05;6.43;;;2.60;78.40;;;1.71;65.42;92657.97;4940750;28;20223;-79
2021/11/27 03:32:10;;;;;;;12.00;6.88;;;2.60;78.50;;;1.74;65.44;92655.78;4940937;28;20286;-79
2021/11/27 03:34:46;;;;;;;10.00;5.88;;;2.70;78.60;;;1.76;65.43;92646.06;4940912;28;20313;-79
2021/11/27 03:37:14;;;;;;;12.07;6.82;;;2.70;78.50;;;1.77;65.19;92644.28;4936963;29;20662;-79
2021/11/27 03:39:43;;;;;;;10.40;6.38;;;2.70;78.50;;;1.81;65.35;92653.25;4952778;29;20223;-79
2021/11/27 03:42:14;;;;;;;11.32;6.90;;;2.70;78.50;;;1.82;65.31;92652.25;4966932;28;20199;-80
2021/11/27 03:44:43;;;;;;;11.05;6.00;;;2.70;78.50;;;1.85;65.17;92649.25;4955286;28;20313;-78
2021/11/27 03:47:11;;;;;;;8.38;5.60;;;2.80;78.50;;;1.88;65.61;92648.88;4939562;28;20202;-78
2021/11/27 03:49:39;;;;;;;9.57;5.95;;;2.80;78.50;;;1.89;65.38;92647.09;4940158;28;20296;-79
2021/11/27 03:52:07;;;;;;;9.63;5.95;;;2.80;78.50;;;1.89;65.35;92644.50;4939257;28;20637;-78
2021/11/27 03:54:38;;;;;;;10.45;5.78;;;2.80;78.50;;;1.90;65.37;92636.56;4939651;28;20249;-79
2021/11/27 03:57:05;;;;;;;9.52;6.18;;;2.80;78.40;;;1.93;65.33;92635.38;4921828;28;20652;-79
2021/11/27 03:59:34;;;;;;;10.18;5.88;;;2.90;78.50;;;1.96;65.35;92634.97;4936910;28;20222;-79
2021/11/27 04:02:04;;;;;;;10.07;6.25;;;2.90;78.40;;;1.96;65.37;92631.59;4937425;28;20201;-78
2021/11/27 04:04:35;;;;;;;10.30;5.90;;;2.90;78.40;;;1.99;65.24;92636.38;4953384;28;20221;-78
2021/11/27 04:07:05;;;;;;;9.60;5.72;;;2.90;78.50;;;1.99;65.41;92638.97;4939006;28;20203;-78
2021/11/27 04:09:33;;;;;;;9.40;6.00;;;2.90;78.50;;;1.97;65.33;92635.78;4938490;28;20225;-78
2021/11/27 04:12:02;;;;;;;9.93;6.50;;;2.90;78.40;;;2.01;65.16;92642.16;4937163;28;20203;-79
2021/11/27 04:14:42;;;;;;;10.60;6.25;;;2.90;78.40;;;2.02;65.42;92643.75;4937776;28;20323;-78
2021/11/27 04:17:09;;;;;;;10.18;5.97;;;3.00;78.40;;;2.03;65.55;92646.13;4971167;28;20661;-78
2021/11/27 04:19:37;;;;;;;11.10;6.13;;;2.90;78.40;;;2.06;65.33;92642.34;4937556;28;20715;-78
2021/11/27 04:22:08;;;;;;;11.75;6.32;;;3.00;78.50;;;2.02;65.35;92626.44;4937784;28;20187;-78
2021/11/27 04:24:39;;;;;;;9.35;5.60;;;3.00;78.40;;;2.08;65.68;92630.03;4937746;28;20787;-78
2021/11/27 04:27:06;;;;;;;9.50;5.50;;;3.00;78.50;;;2.10;65.53;92622.88;4953580;28;20202;-78
2021/11/27 04:29:34;;;;;;;8.95;5.60;;;3.00;78.50;;;2.09;65.61;92618.72;4934408;28;20227;-77
2021/11/27 04:32:02;;;;;;;9.40;5.57;;;3.00;78.50;;;2.12;65.42;92627.84;4968622;28;20246;-78
2021/11/27 04:34:30;;;;;;;9.32;5.65;;;3.00;78.50;;;2.16;65.41;92636.81;4937034;28;20230;-78
2021/11/27 04:36:57;;;;;;;9.93;5.97;;;3.10;78.50;;;2.10;65.19;92638.41;4932792;28;20203;-78
2021/11/27 04:39:24;;;;;;;11.80;6.07;;;3.10;78.50;;;2.14;65.21;92637.00;4921436;28;20226;-78
2021/11/27 04:41:52;;;;;;;8.38;5.18;;;3.10;78.50;;;2.18;65.06;92635.63;4922215;28;20230;-78
2021/11/27 04:44:19;;;;;;;10.40;6.32;;;3.10;78.40;;;2.19;65.13;92646.78;4939744;28;20293;-77
2021/11/27 04:46:46;;;;;;;10.48;5.95;;;3.10;78.50;;;2.17;65.28;92646.16;4935520;28;20207;-78
2021/11/27 04:49:14;;;;;;;9.80;6.40;;;3.10;78.40;;;2.20;65.23;92653.53;4936760;28;21623;-78
2021/11/27 04:51:41;;;;;;;9.00;5.63;;;3.10;78.40;;;2.18;65.29;92648.53;4936621;28;20199;-79
2021/11/27 04:54:09;;;;;;;10.60;6.47;;;3.10;78.40;;;2.19;65.04;92650.13;4935505;28;20211;-78
2021/11/27 04:56:36;;;;;;;12.20;6.63;;;3.10;78.40;;;2.16;65.36;92644.56;4940744;28;20225;-79
2021/11/27 04:59:03;;;;;;;11.90;7.00;;;3.10;78.40;;;2.19;65.38;92639.00;4956436;28;20258;-77
2021/11/27 05:01:31;;;;;;;9.95;6.07;;;3.10;78.40;;;2.19;65.25;92647.56;4952337;28;20210;-79
2021/11/27 05:03:59;;;;;;;11.35;6.20;;;3.10;78.40;;;2.14;65.41;92646.56;4955701;28;20606;-79
2021/11/27 05:06:27;;;;;;;14.20;6.97;;;3.10;78.30;;;2.17;65.36;92653.91;4939047;28;20211;-78
2021/11/27 05:08:55;;;;;;;11.77;7.18;;;3.10;78.30;;;2.16;65.41;92647.97;4920413;29;20247;-79
2021/11/27 05:11:23;;;;;;;13.85;7.25;;;3.10;78.30;;;2.17;65.37;92657.31;4945338;28;20261;-79
2021/11/27 05:13:52;;;;;;;14.02;7.50;;;3.10;78.30;;;2.16;65.55;92657.50;4939456;28;20233;-77
2021/11/27 05:16:19;;;;;;;13.40;7.35;;;3.10;78.30;;;2.14;65.12;92647.34;4967847;28;20195;-78
2021/11/27 05:18:49;;;;;;;13.82;7.32;;;3.10;78.30;;;2.15;65.25;92651.53;4954988;28;20223;-78
2021/11/27 05:21:35;;;;;;;11.60;7.35;;;3.10;78.30;;;2.14;65.55;92652.53;4958216;28;20322;-79
2021/11/27 05:24:02;;;;;;;12.30;6.70;;;3.10;78.30;;;2.13;65.11;92643.16;4940582;28;20218;-78
2021/11/27 05:26:42;;;;;;;14.30;7.70;;;3.10;78.30;;;2.12;65.33;92640.78;4941016;28;20814;-78
2021/11/27 05:29:28;;;;;;;13.15;6.68;;;3.10;78.30;;;2.15;65.31;92646.38;4974496;28;20229;-78
2021/11/27 05:32:04;;;;;;;12.02;6.60;;;3.10;78.30;;;2.16;65.50;92644.56;4970917;28;20310;-79
2021/11/27 05:34:39;;;;;;;11.43;6.63;;;3.10;78.40;;;2.17;65.30;92648.75;4973205;28;20214;-78
2021/11/27 05:37:07;;;;;;;12.77;6.57;;;3.10;78.30;;;2.18;65.38;92656.31;4942654;28;20631;-78
2021/11/27 05:39:37;;;;;;;10.40;6.38;;;3.10;78.30;;;2.19;65.49;92652.72;4924038;29;20226;-78
2021/11/27 05:42:04;;;;;;;12.13;6.57;;;3.10;78.30;;;2.20;65.17;92656.13;4955137;28;20705;-78
2021/11/27 05:44:38;;;;;;;13.27;7.10;;;3.20;78.40;;;2.21;65.45;92665.47;4944384;28;20223;-79
2021/11/27 05:47:05;;;;;;;11.52;6.55;;;3.20;78.40;;;2.21;65.38;92665.47;4942457;28;20306;-78
2021/11/27 05:49:35;;;;;;;11.45;6.28;;;3.20;78.40;;;2.22;65.14;92675.63;4926567;28;20234;-78
2021/11/27 05:52:21;;;;;;;9.90;5.97;;;3.20;78.40;;;2.23;65.34;92666.06;4958153;28;20206;-79
2021/11/27 05:54:49;;;;;;;10.50;5.95;;;3.20;78.40;;;2.22;65.43;92662.69;4958156;28;20250;-79
2021/11/27 05:57:16;;;;;;;9.68;6.25;;;3.20;78.40;;;2.21;65.22;92658.50;4941222;28;20202;-78
2021/11/27 05:59:45;;;;;;;7.68;5.65;;;3.20;78.40;;;2.23;65.02;92661.72;4942276;28;20225;-78
2021/11/27 06:02:13;;;;;;;16.92;8.68;;;3.20;78.40;;;2.22;65.14;92662.69;4958007;28;20234;-78
2021/11/27 06:04:40;;;;;;;17.52;9.77;;;3.20;78.30;;;2.23;64.96;92656.53;4941134;28;20227;-79
2021/11/27 06:07:07;;;;;;;20.88;9.93;;;3.20;78.40;;;2.18;65.28;92651.13;4954344;28;20205;-78
2021/11/27 06:09:35;;;;;;;22.55;10.80;;;3.10;78.30;;;2.22;65.19;92654.13;4940351;28;20231;-78
2021/11/27 06:12:03;;;;;;;17.20;9.13;;;3.10;78.30;;;2.18;65.38;92652.94;4939873;28;20194;-78
2021/11/27 06:14:33;;;;;;;15.07;9.32;;;3.20;78.40;;;2.22;65.23;92660.09;4939520;28;20709;-78
2021/11/27 06:17:01;;;;;;;14.57;7.93;;;3.20;78.40;;;2.20;65.35;92662.09;4936081;29;20298;-79
2021/11/27 06:19:29;;;;;;;10.93;6.63;;;3.20;78.40;;;2.20;65.54;92677.59;4936622;29;20215;-78
2021/11/27 06:21:56;;;;;;;12.60;6.97;;;3.20;78.40;;;2.18;65.38;92673.63;4952444;29;20206;-78
2021/11/27 06:24:23;;;;;;;11.20;6.47;;;3.10;78.40;;;2.19;65.13;92676.00;4967763;28;20218;-79
2021/11/27 06:26:51;;;;;;;10.65;6.18;;;3.20;78.40;;;2.18;65.14;92666.66;4955746;28;20293;-78
2021/11/27 06:29:19;;;;;;;13.95;7.63;;;3.10;78.30;;;2.19;65.21;92682.97;4939995;28;20296;-78
2021/11/27 06:31:46;;;;;;;28.83;13.82;;;3.10;78.30;;;2.21;65.18;92686.16;4955245;28;20214;-78
2021/11/27 06:34:14;;;;;;;19.70;10.45;;;3.10;78.40;;;2.17;65.26;92675.41;4937142;28;20689;-79
2021/11/27 06:36:41;;;;;;;17.45;9.20;;;3.10;78.40;;;2.20;65.30;92677.59;4955572;28;20191;-79
2021/11/27 06:39:08;;;;;;;15.98;8.60;;;3.20;78.40;;;2.22;65.26;92682.56;4939380;28;20234;-79
2021/11/27 06:41:35;;;;;;;16.13;8.73;;;3.20;78.50;;;2.22;64.98;92690.31;4936874;29;20657;-79
2021/11/27 06:44:30;;;;;;;15.43;8.45;;;3.20;78.40;;;2.22;65.18;92687.75;4957189;28;20395;-79
2021/11/27 06:46:57;;;;;;;15.68;8.18;;;3.20;78.50;;;2.22;65.39;92683.38;4957459;28;20187;-78
2021/11/27 06:49:24;;;;;;;14.88;8.32;;;3.20;78.40;;;2.23;65.35;92684.16;4940867;28;20234;-79
2021/11/27 06:51:51;;;;;;;15.80;9.23;;;3.20;78.50;;;2.24;65.21;92690.94;4955177;28;20553;-78
2021/11/27 06:54:19;;;;;;;19.13;10.52;;;3.20;78.40;;;2.19;65.38;92678.59;4936498;28;20261;-79
2021/11/27 06:56:46;;;;;;;17.75;10.68;;;3.20;78.50;;;2.24;65.34;92689.13;4937474;28;20294;-78
2021/11/27 06:59:14;;;;;;;15.38;9.65;;;3.20;78.40;;;2.27;65.08;92697.50;4935602;28;20212;-78
2021/11/27 07:01:59;;;;;;;18.05;10.23;;;3.20;78.40;;;2.26;65.19;92701.09;4937107;29;20665;-78
2021/11/27 07:04:45;;;;;;;20.80;10.40;;;3.20;78.50;;;2.26;65.29;92695.91;4937394;28;20308;-77
2021/11/27 07:07:18;;;;;;;18.65;10.30;;;3.20;78.50;;;2.28;65.46;92706.88;4935748;29;20183;-78
2021/11/27 07:09:53;;;;;;;20.67;11.27;;;3.20;78.50;;;2.29;65.26;92711.06;4935832;29;20278;-79
2021/11/27 07:12:31;;;;;;;17.33;9.90;;;3.20;78.50;;;2.29;65.37;92706.66;4927339;28;20230;-79
2021/11/27 07:15:02;;;;;;;15.63;8.73;;;3.20;78.50;;;2.32;65.44;92705.47;4964979;28;20689;-80
2021/11/27 07:17:31;;;;;;;11.18;6.70;;;3.20;78.50;;;2.34;65.44;92717.22;4938270;28;20249;-80
2021/11/27 07:20:05;;;;;;;9.77;5.80;;;3.20;78.50;;;2.37;65.40;92710.88;4940215;28;20230;-79
2021/11/27 07:22:32;;;;;;;8.98;5.10;;;3.30;78.50;;;2.38;65.29;92713.25;4955391;28;20666;-79
2021/11/27 07:25:04;;;;;;;7.50;4.97;;;3.30;78.60;;;2.45;65.32;92715.06;4934780;29;20310;-79
2021/11/27 07:27:49;;;;;;;6.60;4.68;;;3.30;78.60;;;2.49;65.43;92716.25;4951657;29;20293;-79
2021/11/27 07:30:17;;;;;;;6.70;4.75;;;3.30;78.80;;;2.52;65.35;92719.25;4953996;28;20221;-80
2021/11/27 07:32:47;;;;;;;7.45;5.28;;;3.30;78.70;;;2.59;65.44;92727.03;4938405;28;20218;-79
2021/11/27 07:35:14;;;;;;;7.32;4.63;;;3.40;78.80;;;2.63;65.36;92720.47;4942935;28;20222;-79
2021/11/27 07:37:41;;;;;;;7.28;4.60;;;3.40;79.70;;;2.63;65.58;92714.50;4937829;28;20195;-79
2021/11/27 07:40:08;;;;;;;5.93;4.40;;;3.50;78.90;;;2.78;65.37;92716.88;4939822;28;20218;-79
2021/11/27 07:42:35;;;;;;;7.07;4.70;;;3.50;78.90;;;2.85;65.41;92718.47;4935675;28;20202;-79
2021/11/27 07:45:22;;;;;;;11.63;6.05;;;3.60;79.10;;;2.90;65.52;92719.69;4957330;28;20304;-79
2021/11/27 07:48:08;;;;;;;7.22;5.40;;;3.60;79.10;;;2.98;64.93;92722.88;4957236;28;20690;-79
2021/11/27 07:50:54;;;;;;;7.97;5.10;;;3.80;79.20;;;3.07;65.36;92727.84;4955423;28;20620;-78
2021/11/27 07:53:26;;;;;;;9.32;5.55;;;3.70;79.00;;;3.13;64.83;92730.44;4940074;28;20206;-78
2021/11/27 07:55:53;;;;;;;7.00;5.15;;;3.80;79.00;;;3.19;65.20;92727.03;4942437;28;20289;-79
2021/11/27 07:58:22;;;;;;;6.65;4.85;;;3.80;78.90;;;3.26;65.05;92723.66;4936360;28;20199;-79
2021/11/27 08:00:49;;;;;;;7.43;4.88;;;3.90;79.00;;;3.29;65.26;92720.66;4939103;28;20619;-79
2021/11/27 08:03:18;;;;;;;7.28;4.65;;;3.90;78.90;;;3.35;65.52;92722.44;4934040;28;20226;-79
2021/11/27 08:05:45;;;;;;;7.78;5.10;;;4.00;78.90;;;3.40;65.07;92727.03;4948123;28;20207;-79
2021/11/27 08:08:13;;;;;;;7.78;4.93;;;4.00;78.80;;;3.43;65.00;92719.66;4938136;28;20277;-78
2021/11/27 08:10:40;;;;;;;8.48;5.50;;;4.10;78.80;;;3.50;64.91;92722.22;4938690;28;20265;-79
2021/11/27 08:13:07;;;;;;;7.38;5.13;;;4.10;78.80;;;3.54;64.80;92728.59;4921965;28;20334;-79
2021/11/27 08:15:34;;;;;;;7.50;4.72;;;4.20;78.90;;;3.58;65.03;92716.81;4935509;28;20258;-79
2021/11/27 08:18:03;;;;;;;7.15;4.85;;;4.20;78.90;;;3.66;64.93;92714.03;4935291;28;20249;-79
2021/11/27 08:20:30;;;;;;;6.32;4.32;;;4.30;79.00;;;3.74;64.99;92707.81;4929895;28;20269;-80
2021/11/27 08:22:58;;;;;;;7.55;4.97;;;4.40;79.10;;;3.82;65.16;92705.00;4935278;28;20381;-79
2021/11/27 08:25:25;;;;;;;25.98;13.82;;;4.40;79.20;;;3.91;64.87;92712.56;4938863;28;20727;-79
2021/11/27 08:27:52;;;;;;;15.65;10.30;;;4.40;79.20;;;3.95;64.93;92716.31;4934724;28;20210;-79
2021/11/27 08:30:20;;;;;;;11.57;7.85;;;4.60;79.20;;;4.00;64.84;92716.47;4937232;28;20330;-79
2021/11/27 08:32:49;;;;;;;9.00;6.43;;;4.60;79.10;;;4.01;64.74;92705.91;4943096;28;20289;-79
2021/11/27 08:35:17;;;;;;;9.20;6.10;;;4.60;79.00;;;4.05;64.69;92710.69;4925634;28;20597;-80
2021/11/27 08:37:45;;;;;;;8.50;5.50;;;4.70;79.00;;;4.06;64.75;92707.88;4959007;28;20716;-80
2021/11/27 08:40:13;;;;;;;9.85;5.97;;;4.70;78.90;;;4.08;64.88;92705.09;4960397;28;20230;-79
2021/11/27 08:42:42;;;;;;;10.57;7.25;;;4.70;78.80;;;4.10;64.73;92703.06;4947438;28;20219;-79
2021/11/27 08:45:11;;;;;;;10.40;6.80;;;4.70;78.80;;;4.12;64.87;92706.28;4941436;28;20270;-79
2021/11/27 08:47:40;;;;;;;10.15;6.32;;;4.80;78.90;;;4.11;65.12;92705.47;4943482;28;20210;-79
2021/11/27 08:50:09;;;;;;;9.88;6.22;;;4.80;79.00;;;4.21;64.68;92718.00;4939797;28;20325;-78
2021/11/27 08:52:37;;;;;;;8.80;5.55;;;4.80;79.00;;;4.25;64.98;92716.59;4927266;28;20254;-79
2021/11/27 08:55:07;;;;;;;6.80;5.07;;;4.80;79.00;;;4.29;65.42;92719.56;4941824;28;20214;-80
2021/11/27 08:57:34;;;;;;;6.80;4.93;;;4.90;79.00;;;4.32;64.89;92722.53;4943573;28;20669;-79
2021/11/27 09:00:04;;;;;;;7.97;5.35;;;4.90;79.00;;;4.34;64.88;92724.91;4939300;28;20293;-79
2021/11/27 09:02:31;;;;;;;8.38;5.57;;;4.90;78.90;;;4.35;65.00;92717.94;4920287;29;20207;-79
2021/11/27 09:04:58;;;;;;;7.32;4.97;;;5.00;79.00;;;4.37;64.91;92719.31;4966388;28;20215;-79
2021/11/27 09:07:26;;;;;;;7.82;5.20;;;5.00;79.00;;;4.40;65.15;92718.91;4956695;28;20580;-79
2021/11/27 09:09:53;;;;;;;8.45;5.30;;;5.00;79.00;;;4.43;65.08;92717.69;4957790;28;20214;-79
2021/11/27 09:12:21;;;;;;;6.68;5.05;;;5.00;79.10;;;4.48;64.99;92718.66;4942680;28;20290;-79
2021/11/27 09:14:50;;;;;;;8.27;5.47;;;5.10;79.10;;;4.51;65.07;92709.66;4958075;28;20309;-79
2021/11/27 09:17:19;;;;;;;7.88;5.38;;;5.10;79.00;;;4.51;64.98;92714.84;4942242;28;20190;-79
2021/11/27 09:19:46;;;;;;;9.15;6.03;;;5.10;79.00;;;4.55;65.27;92713.41;4939035;29;20246;-79
2021/11/27 09:22:14;;;;;;;8.43;5.75;;;5.20;79.10;;;4.59;64.82;92731.97;4943680;28;20625;-79
2021/11/27 09:24:42;;;;;;;8.85;5.95;;;5.20;79.90;;;4.60;65.38;92720.56;4956911;28;20222;-79
2021/11/27 09:27:09;;;;;;;9.68;5.78;;;5.20;79.10;;;4.61;65.08;92704.81;4940387;28;20569;-79
2021/11/27 09:29:39;;;;;;;8.38;5.60;;;5.30;79.10;;;4.64;64.93;92711.38;4955913;28;20775;-78
2021/11/27 09:32:08;;;;;;;9.15;6.20;;;5.30;79.00;;;4.66;65.08;92706.75;4938823;28;20245;-79
2021/11/27 09:34:35;;;;;;;8.20;6.07;;;5.30;79.00;;;4.70;65.27;92700.16;4941829;28;20689;-79
2021/11/27 09:37:04;;;;;;;8.18;5.63;;;5.30;79.00;;;4.74;65.50;92690.94;4938046;28;20199;-79
2021/11/27 09:39:33;;;;;;;8.57;5.88;;;5.40;79.10;;;4.80;65.30;92681.50;4942782;28;20280;-78
2021/11/27 09:42:01;;;;;;;7.43;5.57;;;5.40;79.20;;;4.89;65.29;92675.03;4940471;28;20292;-79
2021/11/27 09:44:34;;;;;;;8.25;5.78;;;5.50;79.40;;;4.98;65.64;92683.38;4942566;28;20231;-78
2021/11/27 09:47:04;;;;;;;8.00;5.55;;;5.50;79.40;;;5.09;66.01;92677.47;4959121;28;20202;-78
2021/11/27 09:49:36;;;;;;;7.95;5.47;;;5.60;79.50;;;5.23;65.54;92679.94;4953996;28;20246;-79
2021/11/27 09:52:04;;;;;;;8.50;5.80;;;5.70;79.60;;;5.35;65.50;92682.66;4946247;28;20317;-79
2021/11/27 09:54:31;;;;;;;7.72;5.80;;;5.80;79.90;;;5.49;66.02;92684.09;4958039;28;20225;-79
2021/11/27 09:56:59;;;;;;;8.65;6.30;;;5.90;80.10;;;5.69;66.00;92677.88;4957785;28;20290;-78
2021/11/27 09:59:26;;;;;;;7.75;5.50;;;6.00;80.30;;;5.88;65.96;92682.09;4958193;28;20218;-79
2021/11/27 10:01:55;;;;;;;8.27;5.68;;;6.20;80.60;;;6.09;65.92;92686.06;4938125;29;20223;-79
2021/11/27 10:04:23;;;;;;;7.53;5.45;;;6.30;80.60;;;6.28;65.56;92678.22;4950087;28;20219;-79
2021/11/27 10:06:51;;;;;;;8.18;5.43;;;6.50;80.60;;;6.43;65.49;92672.59;4957571;28;20627;-79
2021/11/27 10:09:22;;;;;;;8.05;5.53;;;6.60;80.40;;;6.53;65.01;92670.28;4957939;28;20317;-79
2021/11/27 10:11:52;;;;;;;7.65;5.50;;;6.80;80.00;;;6.61;64.88;92666.53;4970962;28;20747;-79
2021/11/27 10:14:21;;;;;;;7.10;5.07;;;6.90;80.00;;;6.67;64.69;92664.88;4942083;28;20211;-79
2021/11/27 10:17:00;;;;;;;6.93;5.30;;;7.00;79.80;;;6.75;64.63;92663.75;4957684;28;20266;-79
2021/11/27 10:19:44;;;;;;;7.50;5.13;;;7.10;80.00;;;6.78;64.85;92666.69;4961070;28;20689;-79
2021/11/27 10:22:18;;;;;;;7.53;5.18;;;7.20;79.40;;;6.80;64.63;92669.88;4956259;28;20636;-80
2021/11/27 10:24:50;;;;;;;8.07;5.35;;;7.30;79.30;;;6.85;64.81;92672.59;4939428;28;20715;-79
2021/11/27 10:27:25;;;;;;;6.75;4.82;;;7.30;79.30;;;6.92;64.73;92676.91;4956633;28;20195;-79
2021/11/27 10:30:08;;;;;;;10.32;6.72;;;7.40;79.20;;;7.03;64.81;92679.56;4941431;28;20249;-79
2021/11/27 10:32:41;;;;;;;16.15;11.07;;;7.40;79.10;;;7.14;64.77;92682.38;4974209;28;20226;-79
2021/11/27 10:35:16;;;;;;;17.17;12.23;;;7.50;79.00;;;7.20;64.63;92684.91;4941672;28;20230;-79
2021/11/27 10:37:50;;;;;;;69.63;41.17;;;7.60;78.90;;;7.30;64.36;92679.13;4955590;28;20209;-79
2021/11/27 10:40:28;;;;;;;35.33;26.27;;;7.70;79.10;;;7.40;64.01;92669.91;4957262;28;20230;-81